Time;durP1;ratioP1;P1;durP2;ratioP2;P2;SDS_P1;SDS_P2;PMS_P1;PMS_P2;Temp;Humidity;BMP_temperature;BMP_pressure;BME280_temperature;BME280_humidity;BME280_pressure;Samples;Min_cycle;Max_cycle;Signal;HPM_P1;HPM_P2
2022/07/04 00:00:10;;;;;;;57.70;48.95;;;23.70;56.90;;;;;;5016543;27;89866;-54
2022/07/04 00:02:38;;;;;;;57.22;48.95;;;23.70;56.80;;;;;;5024560;27;89858;-55
2022/07/04 00:05:04;;;;;;;57.28;48.55;;;23.70;56.90;;;;;;5022156;27;89639;-52
2022/07/04 00:07:30;;;;;;;57.53;48.85;;;23.70;56.90;;;;;;5034517;27;89236;-51
2022/07/04 00:09:55;;;;;;;57.00;48.97;;;23.70;56.90;;;;;;5009410;27;93650;-54
2022/07/04 00:12:21;;;;;;;57.20;48.85;;;23.70;57.00;;;;;;5033783;27;89726;-51
2022/07/04 00:14:46;;;;;;;56.97;48.63;;;23.60;57.00;;;;;;5023710;27;91822;-51
2022/07/04 00:17:12;;;;;;;56.72;48.70;;;23.60;57.00;;;;;;5027898;27;89723;-53
2022/07/04 00:19:38;;;;;;;56.95;48.63;;;23.60;57.00;;;;;;5027661;27;89804;-54
2022/07/04 00:22:04;;;;;;;57.40;48.97;;;23.60;57.10;;;;;;5034088;27;89765;-52
2022/07/04 00:24:29;;;;;;;57.30;48.95;;;23.60;57.10;;;;;;5028957;27;89510;-54
2022/07/04 00:26:55;;;;;;;57.10;48.92;;;23.60;57.20;;;;;;5029453;27;91099;-50
2022/07/04 00:29:21;;;;;;;56.95;48.85;;;23.60;57.20;;;;;;5030562;27;89796;-53
2022/07/04 00:31:46;;;;;;;57.22;48.72;;;23.50;57.10;;;;;;5030582;27;88961;-53
2022/07/04 00:34:12;;;;;;;57.35;48.80;;;23.50;57.20;;;;;;5026204;27;90176;-51
2022/07/04 00:36:38;;;;;;;57.25;48.95;;;23.60;57.20;;;;;;5022620;27;92739;-54
2022/07/04 00:39:03;;;;;;;56.60;48.65;;;23.50;57.30;;;;;;5027092;27;90751;-53
2022/07/04 00:41:29;;;;;;;58.10;48.65;;;23.50;57.30;;;;;;5017213;27;90601;-52
2022/07/04 00:44:11;;;;;;;57.45;48.85;;;23.50;57.20;;;;;;5021415;27;89832;-55
2022/07/04 00:46:37;;;;;;;56.40;48.63;;;23.50;57.30;;;;;;5003772;27;90806;-55
2022/07/04 00:49:06;;;;;;;56.55;48.53;;;23.50;57.30;;;;;;5033539;27;90406;-54
2022/07/04 00:51:32;;;;;;;57.35;48.58;;;23.40;57.30;;;;;;5013238;27;89742;-54
2022/07/04 00:53:59;;;;;;;57.60;48.55;;;23.40;57.30;;;;;;5029742;27;90218;-50
2022/07/04 00:56:25;;;;;;;57.58;48.85;;;23.40;57.40;;;;;;5020569;27;89941;-54
2022/07/04 00:58:52;;;;;;;56.75;48.65;;;23.40;57.30;;;;;;5026795;27;89727;-53
2022/07/04 01:01:19;;;;;;;56.45;48.53;;;23.40;57.40;;;;;;5024937;27;89814;-52
2022/07/04 01:03:45;;;;;;;57.38;48.72;;;23.40;57.50;;;;;;5019958;27;91219;-48
2022/07/04 01:06:11;;;;;;;56.63;48.35;;;23.40;57.50;;;;;;5006316;27;90236;-53
2022/07/04 01:08:41;;;;;;;57.13;48.55;;;23.30;57.50;;;;;;5026659;27;89809;-55
2022/07/04 01:11:07;;;;;;;56.15;48.55;;;23.30;57.50;;;;;;5026776;27;90395;-54
2022/07/04 01:13:33;;;;;;;56.70;48.63;;;23.30;57.50;;;;;;5018311;27;90143;-52
2022/07/04 01:15:59;;;;;;;56.28;48.55;;;23.30;57.50;;;;;;5024903;27;90088;-55
2022/07/04 01:18:25;;;;;;;57.22;48.75;;;23.20;57.50;;;;;;5029332;27;89716;-52
2022/07/04 01:20:51;;;;;;;56.35;48.55;;;23.30;57.60;;;;;;5025895;27;89422;-50
2022/07/04 01:23:17;;;;;;;58.10;48.55;;;23.20;57.60;;;;;;5031256;27;90464;-52
2022/07/04 01:25:43;;;;;;;56.63;48.55;;;23.20;57.50;;;;;;5024886;27;90631;-53
2022/07/04 01:28:09;;;;;;;56.90;48.85;;;23.20;57.60;;;;;;5027866;27;90943;-54
2022/07/04 01:30:37;;;;;;;56.85;48.67;;;23.20;57.70;;;;;;5021024;27;89868;-52
2022/07/04 01:33:03;;;;;;;56.55;48.70;;;23.20;57.60;;;;;;5027968;27;90615;-55
2022/07/04 01:35:29;;;;;;;56.35;48.45;;;23.20;57.70;;;;;;5024504;27;89836;-54
2022/07/04 01:37:55;;;;;;;56.88;48.67;;;23.20;57.70;;;;;;5031414;27;93712;-55
2022/07/04 01:40:20;;;;;;;56.55;48.60;;;23.20;57.70;;;;;;5029017;27;89717;-50
2022/07/04 01:42:46;;;;;;;57.30;48.58;;;23.10;57.70;;;;;;5029841;27;90843;-53
2022/07/04 01:45:12;;;;;;;56.10;48.47;;;23.10;58.30;;;;;;5024593;27;89390;-52
2022/07/04 01:47:39;;;;;;;57.28;48.55;;;23.10;57.80;;;;;;5025368;27;90033;-53
2022/07/04 01:50:07;;;;;;;56.42;48.45;;;23.10;57.80;;;;;;5017630;27;89958;-51
2022/07/04 01:52:33;;;;;;;56.42;48.65;;;23.10;57.80;;;;;;5019554;27;92421;-54
2022/07/04 01:54:59;;;;;;;57.58;48.40;;;23.00;57.80;;;;;;5015046;27;91001;-53
2022/07/04 01:57:24;;;;;;;56.40;48.45;;;23.00;57.90;;;;;;5025459;27;89635;-50
2022/07/04 02:02:34;;;;;;;56.38;48.47;;;23.00;57.90;;;;;;5021829;27;89841;-52
2022/07/04 02:05:00;;;;;;;56.72;48.55;;;23.00;57.90;;;;;;5030355;27;91413;-55
2022/07/04 02:07:26;;;;;;;56.05;48.65;;;22.90;57.90;;;;;;5023542;27;91975;-51
2022/07/04 02:09:51;;;;;;;56.08;48.50;;;22.90;57.90;;;;;;5033159;27;89624;-49
2022/07/04 02:15:02;;;;;;;57.05;48.75;;;22.90;57.90;;;;;;5036546;27;89654;-52
2022/07/04 02:17:28;;;;;;;56.08;48.25;;;22.90;58.00;;;;;;5029481;27;90792;-53
2022/07/04 02:19:53;;;;;;;56.15;48.38;;;22.90;58.00;;;;;;5022091;27;90321;-53
2022/07/04 02:22:19;;;;;;;55.75;48.53;;;22.90;58.00;;;;;;5029777;27;90351;-54
2022/07/04 02:24:45;;;;;;;57.00;48.65;;;22.90;58.00;;;;;;5037679;27;90042;-54
2022/07/04 02:27:10;;;;;;;57.90;48.60;;;22.90;58.00;;;;;;5027178;27;90452;-55
2022/07/04 02:29:36;;;;;;;56.78;48.53;;;22.80;58.00;;;;;;5033284;27;89872;-53
2022/07/04 02:32:02;;;;;;;56.25;48.42;;;22.80;57.90;;;;;;5022230;27;90488;-53
2022/07/04 02:34:28;;;;;;;55.72;48.25;;;22.80;58.00;;;;;;5033413;27;90214;-54
2022/07/04 02:36:54;;;;;;;56.38;48.63;;;22.80;58.00;;;;;;5030826;27;90040;-54
2022/07/04 02:39:20;;;;;;;56.03;48.47;;;22.80;58.10;;;;;;5031057;27;89615;-55
2022/07/04 02:41:46;;;;;;;56.40;48.65;;;22.80;58.10;;;;;;5025966;27;90963;-54
2022/07/04 02:44:11;;;;;;;56.55;48.55;;;22.80;58.10;;;;;;5034597;27;90373;-52
2022/07/04 02:46:37;;;;;;;56.53;48.55;;;22.70;58.20;;;;;;5016987;27;91109;-52
2022/07/04 02:49:03;;;;;;;55.55;48.35;;;22.70;58.20;;;;;;5036794;27;89540;-52
2022/07/04 02:51:29;;;;;;;56.13;48.50;;;22.70;58.10;;;;;;5028014;27;90174;-53
2022/07/04 02:53:55;;;;;;;56.35;48.55;;;22.70;58.20;;;;;;5031085;27;90051;-51
2022/07/04 02:56:20;;;;;;;55.92;48.35;;;22.70;58.10;;;;;;5021922;27;89521;-52
2022/07/04 02:58:46;;;;;;;56.10;48.28;;;22.70;58.20;;;;;;5023930;27;89783;-52
2022/07/04 03:01:12;;;;;;;55.70;48.53;;;22.70;58.10;;;;;;5030147;27;90169;-52
2022/07/04 03:03:39;;;;;;;57.45;48.25;;;22.70;58.20;;;;;;5025916;27;90462;-49
2022/07/04 03:06:07;;;;;;;56.40;48.33;;;22.70;58.20;;;;;;5027221;27;91436;-55
2022/07/04 03:08:33;;;;;;;55.30;48.33;;;22.70;58.20;;;;;;5032351;27;90449;-54
2022/07/04 03:10:59;;;;;;;55.92;48.30;;;22.70;58.30;;;;;;5028832;27;89870;-53
2022/07/04 03:13:25;;;;;;;56.10;48.38;;;22.60;58.20;;;;;;5016672;27;89808;-51
2022/07/04 03:15:51;;;;;;;56.20;48.45;;;22.60;58.80;;;;;;5027876;27;91902;-52
2022/07/04 03:18:16;;;;;;;56.95;48.63;;;22.60;58.20;;;;;;5033784;27;90307;-55
2022/07/04 03:20:42;;;;;;;56.17;48.58;;;22.60;58.30;;;;;;5034335;27;90567;-51
2022/07/04 03:23:08;;;;;;;56.25;48.38;;;22.60;58.20;;;;;;5025483;27;90137;-55
2022/07/04 03:25:33;;;;;;;56.55;48.55;;;22.70;58.20;;;;;;5029904;27;89713;-50
2022/07/04 03:27:59;;;;;;;55.80;48.25;;;22.60;58.20;;;;;;5028443;27;94240;-55
2022/07/04 03:30:25;;;;;;;56.25;48.35;;;22.60;58.20;;;;;;5032560;27;92316;-54
2022/07/04 03:32:51;;;;;;;55.22;48.10;;;22.60;58.30;;;;;;5025394;27;94698;-50
2022/07/04 03:35:17;;;;;;;57.22;48.50;;;22.50;58.20;;;;;;5032076;27;91040;-51
2022/07/04 03:37:42;;;;;;;55.53;48.35;;;22.50;58.10;;;;;;5030069;27;89507;-50
2022/07/04 03:40:09;;;;;;;55.55;48.45;;;22.50;58.30;;;;;;5035925;27;90943;-51
2022/07/04 03:42:34;;;;;;;56.85;48.65;;;22.50;58.20;;;;;;5022739;27;89621;-55
2022/07/04 03:45:00;;;;;;;56.92;48.45;;;22.50;58.20;;;;;;5033890;27;90025;-54
2022/07/04 03:47:25;;;;;;;57.17;48.45;;;22.50;58.30;;;;;;5026418;27;89122;-54
2022/07/04 03:49:51;;;;;;;56.30;48.55;;;22.50;58.30;;;;;;5030429;27;90405;-53
2022/07/04 03:52:17;;;;;;;55.47;48.35;;;22.50;58.30;;;;;;5024654;27;90077;-49
2022/07/04 03:54:43;;;;;;;55.67;48.45;;;22.50;58.30;;;;;;5025194;27;91011;-51
2022/07/04 03:57:08;;;;;;;56.45;48.45;;;22.50;58.30;;;;;;5033797;27;89920;-52
2022/07/04 03:59:34;;;;;;;56.25;48.42;;;22.50;58.30;;;;;;5026697;27;89942;-50
2022/07/04 04:01:59;;;;;;;56.25;48.65;;;22.40;58.20;;;;;;5009460;27;90597;-52
2022/07/04 04:07:10;;;;;;;55.95;48.33;;;22.50;58.20;;;;;;5029703;27;90274;-51
2022/07/04 04:09:35;;;;;;;56.22;48.75;;;22.40;58.20;;;;;;5026362;27;90538;-54
2022/07/04 04:12:01;;;;;;;55.45;48.25;;;22.40;58.20;;;;;;5026602;27;90782;-55
2022/07/04 04:14:27;;;;;;;55.35;48.38;;;22.40;58.30;;;;;;5028130;27;89937;-54
2022/07/04 04:16:53;;;;;;;55.67;48.35;;;22.40;58.20;;;;;;5029732;27;89718;-53
2022/07/04 04:19:19;;;;;;;56.58;48.38;;;22.40;58.20;;;;;;5032683;27;91171;-50
2022/07/04 04:21:44;;;;;;;55.65;48.38;;;22.50;58.10;;;;;;5034314;27;89596;-53
2022/07/04 04:24:10;;;;;;;55.60;48.35;;;22.50;58.10;;;;;;5028949;27;89786;-55
2022/07/04 04:26:36;;;;;;;56.10;48.53;;;22.50;58.10;;;;;;5033147;27;89973;-55
2022/07/04 04:29:02;;;;;;;56.20;48.58;;;22.50;58.10;;;;;;5017476;27;90493;-53
2022/07/04 04:31:30;;;;;;;56.60;48.33;;;22.50;58.10;;;;;;5035037;27;90008;-50
2022/07/04 04:33:56;;;;;;;56.47;48.53;;;22.50;58.20;;;;;;5026055;27;92776;-54
2022/07/04 04:36:22;;;;;;;55.72;48.45;;;22.50;58.10;;;;;;5029170;27;89335;-51
2022/07/04 04:38:47;;;;;;;55.60;48.35;;;22.50;58.20;;;;;;5019645;27;91115;-51
2022/07/04 04:41:13;;;;;;;55.90;48.53;;;22.50;58.10;;;;;;5032163;27;90407;-50
2022/07/04 04:43:39;;;;;;;55.22;48.45;;;22.50;58.00;;;;;;5022830;27;90796;-55
2022/07/04 04:46:04;;;;;;;55.47;48.22;;;22.50;57.90;;;;;;5031786;27;89797;-55
2022/07/04 04:48:30;;;;;;;56.25;48.25;;;22.60;58.00;;;;;;5019688;27;90117;-51
2022/07/04 04:50:55;;;;;;;55.90;48.55;;;22.50;57.90;;;;;;5033282;27;90226;-51
2022/07/04 04:53:25;;;;;;;56.17;48.40;;;22.60;58.10;;;;;;5018984;27;89854;-50
2022/07/04 04:55:51;;;;;;;55.95;48.42;;;22.50;57.90;;;;;;5019494;27;93384;-51
2022/07/04 04:58:17;;;;;;;56.08;48.40;;;22.60;58.10;;;;;;5029407;27;90094;-50
2022/07/04 05:00:43;;;;;;;56.38;48.65;;;22.50;57.90;;;;;;5026850;27;91522;-53
2022/07/04 05:03:08;;;;;;;56.00;48.47;;;22.50;57.90;;;;;;5031178;27;90010;-52
2022/07/04 05:05:34;;;;;;;55.85;48.60;;;22.60;57.90;;;;;;5026468;27;90569;-52
2022/07/04 05:08:00;;;;;;;55.70;48.40;;;22.60;57.90;;;;;;5032648;27;91897;-53
2022/07/04 05:10:25;;;;;;;56.90;48.83;;;22.60;57.90;;;;;;5024865;27;93766;-51
2022/07/04 05:12:51;;;;;;;55.83;48.67;;;22.60;57.80;;;;;;5027816;27;90426;-52
2022/07/04 05:15:17;;;;;;;56.22;48.65;;;22.60;58.00;;;;;;5030556;27;91575;-53
2022/07/04 05:17:43;;;;;;;55.35;48.30;;;22.60;57.90;;;;;;5021334;27;91613;-54
2022/07/04 05:20:09;;;;;;;56.72;48.42;;;22.60;57.80;;;;;;5021830;27;89690;-51
2022/07/04 05:22:34;;;;;;;56.22;48.65;;;22.60;57.80;;;;;;5032094;27;89995;-51
2022/07/04 05:25:00;;;;;;;56.67;48.55;;;22.60;57.80;;;;;;5027798;27;89266;-53
2022/07/04 05:27:26;;;;;;;56.20;48.50;;;22.60;57.70;;;;;;5031342;27;89760;-53
2022/07/04 05:29:51;;;;;;;56.45;48.50;;;22.60;57.70;;;;;;5024903;27;90338;-55
2022/07/04 05:32:17;;;;;;;56.47;48.42;;;22.60;57.60;;;;;;5023598;27;91456;-54
2022/07/04 05:34:43;;;;;;;56.13;48.63;;;22.60;57.50;;;;;;5022925;27;90845;-53
2022/07/04 05:37:08;;;;;;;56.53;48.65;;;22.60;57.50;;;;;;5031301;27;90169;-52
2022/07/04 05:39:34;;;;;;;55.60;48.53;;;22.60;57.50;;;;;;5023368;27;90282;-53
2022/07/04 05:42:00;;;;;;;57.17;48.72;;;22.70;57.50;;;;;;5022737;27;90304;-50
2022/07/04 05:44:26;;;;;;;56.45;48.75;;;22.70;57.50;;;;;;5023529;27;89920;-55
2022/07/04 05:46:51;;;;;;;55.63;48.35;;;22.70;57.40;;;;;;5029157;27;90601;-51
2022/07/04 05:49:17;;;;;;;56.05;48.65;;;22.80;57.70;;;;;;5029790;27;89925;-53
2022/07/04 05:51:42;;;;;;;55.75;48.35;;;22.80;57.60;;;;;;5024360;27;89843;-52
2022/07/04 05:54:08;;;;;;;56.65;48.72;;;22.80;57.90;;;;;;5028144;27;89856;-49
2022/07/04 05:56:34;;;;;;;58.53;48.95;;;22.80;57.60;;;;;;5029024;27;90709;-51
2022/07/04 05:59:00;;;;;;;57.00;48.88;;;22.80;57.50;;;;;;5036387;27;90457;-50
2022/07/04 06:01:25;;;;;;;56.70;48.67;;;22.80;57.40;;;;;;5030434;27;91575;-51
2022/07/04 06:03:51;;;;;;;57.17;48.88;;;22.90;57.20;;;;;;5014428;27;90913;-49
2022/07/04 06:06:16;;;;;;;56.97;48.53;;;22.90;57.30;;;;;;5027637;27;90998;-51
2022/07/04 06:08:42;;;;;;;56.47;48.92;;;22.90;57.30;;;;;;5028711;27;92685;-51
2022/07/04 06:11:08;;;;;;;56.78;48.83;;;22.90;57.30;;;;;;5027338;27;91046;-52
2022/07/04 06:13:34;;;;;;;57.33;48.75;;;22.90;57.30;;;;;;5029659;27;91394;-52
2022/07/04 06:15:59;;;;;;;57.25;48.92;;;22.90;57.80;;;;;;5023769;27;90851;-50
2022/07/04 06:18:27;;;;;;;57.10;48.90;;;22.90;57.10;;;;;;5035391;27;90338;-51
2022/07/04 06:20:52;;;;;;;56.95;48.97;;;22.90;57.20;;;;;;5024605;27;90865;-52
2022/07/04 06:23:18;;;;;;;57.13;48.83;;;22.90;57.10;;;;;;5032168;27;89790;-52
2022/07/04 06:25:44;;;;;;;60.00;49.05;;;22.90;57.20;;;;;;5029458;27;89569;-52
2022/07/04 06:28:10;;;;;;;57.33;48.92;;;22.90;57.10;;;;;;5026579;27;90397;-52
2022/07/04 06:30:35;;;;;;;56.85;48.85;;;22.90;57.00;;;;;;5021055;27;89660;-54
2022/07/04 06:33:01;;;;;;;57.05;49.03;;;22.90;56.90;;;;;;5036492;27;89891;-48
2022/07/04 06:35:45;;;;;;;58.13;48.97;;;23.00;57.10;;;;;;5023246;27;92429;-49
2022/07/04 06:38:16;;;;;;;56.92;49.03;;;23.00;57.00;;;;;;5032963;27;89293;-51
2022/07/04 06:40:42;;;;;;;57.60;48.90;;;23.00;56.90;;;;;;5021490;27;90151;-50
2022/07/04 06:43:07;;;;;;;56.63;49.08;;;23.00;56.90;;;;;;5036993;27;90425;-51
2022/07/04 06:45:34;;;;;;;57.88;49.22;;;23.00;56.90;;;;;;5031978;27;92072;-49
2022/07/04 06:48:00;;;;;;;58.60;49.25;;;23.00;56.90;;;;;;5036120;27;91089;-52
2022/07/04 06:50:26;;;;;;;58.00;49.25;;;23.00;56.90;;;;;;5028291;27;96248;-54
2022/07/04 06:52:52;;;;;;;56.83;49.03;;;23.00;56.90;;;;;;5025104;27;91801;-52
2022/07/04 06:55:40;;;;;;;57.38;49.13;;;23.00;57.00;;;;;;5022568;27;91639;-52
2022/07/04 06:58:07;;;;;;;58.40;48.97;;;23.00;57.00;;;;;;5029160;27;90090;-49
2022/07/04 07:00:34;;;;;;;57.08;48.92;;;23.00;56.90;;;;;;5017965;27;91580;-52
2022/07/04 07:03:00;;;;;;;57.63;48.88;;;23.00;56.90;;;;;;5034871;27;88795;-48
2022/07/04 07:05:27;;;;;;;56.85;48.92;;;23.00;56.90;;;;;;5029603;27;91320;-52
2022/07/04 07:07:53;;;;;;;58.72;49.03;;;23.00;56.80;;;;;;5037398;27;91683;-51
2022/07/04 07:10:19;;;;;;;57.22;49.35;;;23.00;57.00;;;;;;5025914;27;91442;-52
2022/07/04 07:12:45;;;;;;;57.03;48.88;;;23.00;56.90;;;;;;5023394;27;90072;-48
2022/07/04 07:15:11;;;;;;;57.25;48.80;;;23.00;56.80;;;;;;5023598;27;89801;-48
2022/07/04 07:17:37;;;;;;;58.95;49.25;;;23.00;56.90;;;;;;5033862;27;96053;-53
2022/07/04 07:20:03;;;;;;;57.00;49.05;;;23.00;56.90;;;;;;5033019;27;89762;-50
2022/07/04 07:22:29;;;;;;;57.50;49.03;;;23.00;56.80;;;;;;5020936;27;89598;-52
2022/07/04 07:24:56;;;;;;;56.78;48.92;;;23.10;56.80;;;;;;5032680;27;89483;-49
2022/07/04 07:27:21;;;;;;;57.05;49.10;;;23.10;56.70;;;;;;5023927;27;91319;-52
2022/07/04 07:29:47;;;;;;;57.20;48.83;;;23.10;56.80;;;;;;5025410;27;89472;-52
2022/07/04 07:32:13;;;;;;;58.30;49.20;;;23.00;56.80;;;;;;5019762;27;90156;-53
2022/07/04 07:34:38;;;;;;;57.63;49.13;;;23.10;56.80;;;;;;5037773;27;92084;-52
2022/07/04 07:37:04;;;;;;;58.22;49.25;;;23.10;56.90;;;;;;5023637;27;91024;-54
2022/07/04 07:39:30;;;;;;;57.25;49.17;;;23.10;56.80;;;;;;5030788;27;91634;-53
2022/07/04 07:41:55;;;;;;;57.75;49.05;;;23.10;56.90;;;;;;5025489;27;89787;-53
2022/07/04 07:44:21;;;;;;;56.97;48.95;;;23.10;56.90;;;;;;5029159;27;89605;-52
2022/07/04 07:46:47;;;;;;;58.95;49.17;;;23.10;56.80;;;;;;5034427;27;90984;-51
2022/07/04 07:49:12;;;;;;;56.88;48.90;;;23.10;56.90;;;;;;5012248;27;89885;-52
2022/07/04 07:51:38;;;;;;;57.83;49.25;;;23.10;56.80;;;;;;5022110;27;88902;-54
2022/07/04 07:54:03;;;;;;;57.40;49.08;;;23.10;56.80;;;;;;5009270;27;91530;-51
2022/07/04 07:56:29;;;;;;;57.83;49.30;;;23.10;56.80;;;;;;5022679;27;89551;-55
2022/07/04 07:58:55;;;;;;;57.53;49.25;;;23.10;56.70;;;;;;5033227;27;91523;-52
2022/07/04 08:01:21;;;;;;;58.67;49.00;;;23.10;57.20;;;;;;5009335;27;94966;-52
2022/07/04 08:06:32;;;;;;;58.28;49.53;;;23.10;56.60;;;;;;5017942;27;91159;-53
2022/07/04 08:08:58;;;;;;;57.40;49.33;;;23.10;56.60;;;;;;5023540;27;89798;-54
2022/07/04 08:11:24;;;;;;;57.30;49.05;;;23.10;56.60;;;;;;5021772;27;89580;-48
2022/07/04 08:13:50;;;;;;;57.72;49.63;;;23.20;56.60;;;;;;5031820;27;89660;-52
2022/07/04 08:16:16;;;;;;;57.95;49.35;;;23.10;56.60;;;;;;5014689;27;89744;-49
2022/07/04 08:18:42;;;;;;;57.70;49.38;;;23.10;56.60;;;;;;5022801;27;89508;-52
2022/07/04 08:21:08;;;;;;;57.58;49.33;;;23.20;56.60;;;;;;5023898;27;89535;-50
2022/07/04 08:23:34;;;;;;;57.67;49.28;;;23.20;56.60;;;;;;5020002;27;94463;-55
2022/07/04 08:26:00;;;;;;;57.42;49.08;;;23.20;56.50;;;;;;5029658;27;89792;-49
2022/07/04 08:28:26;;;;;;;57.53;49.55;;;23.20;56.40;;;;;;5017241;27;90354;-53
2022/07/04 08:30:52;;;;;;;57.40;49.33;;;23.20;56.50;;;;;;5026048;27;90359;-54
2022/07/04 08:33:18;;;;;;;57.53;49.30;;;23.20;56.60;;;;;;5026806;27;90256;-53
2022/07/04 08:35:44;;;;;;;57.85;49.55;;;23.20;56.50;;;;;;5018864;27;89977;-52
2022/07/04 08:38:10;;;;;;;57.50;49.55;;;23.20;56.40;;;;;;5027514;27;89918;-49
2022/07/04 08:40:35;;;;;;;58.13;49.65;;;23.20;56.60;;;;;;5033257;27;89339;-53
2022/07/04 08:43:03;;;;;;;57.28;49.28;;;23.20;56.50;;;;;;5025299;27;90539;-53
2022/07/04 08:45:33;;;;;;;57.83;49.70;;;23.20;56.50;;;;;;5033322;27;89870;-52
2022/07/04 08:48:07;;;;;;;57.47;49.40;;;23.20;56.50;;;;;;5024838;27;90953;-51
2022/07/04 08:50:47;;;;;;;58.75;49.83;;;23.20;56.40;;;;;;5031399;27;89923;-53
2022/07/04 08:53:17;;;;;;;57.88;49.47;;;23.20;56.40;;;;;;5014667;27;92533;-49
2022/07/04 08:58:29;;;;;;;58.13;49.45;;;23.20;56.50;;;;;;5022147;27;89589;-52
2022/07/04 09:00:57;;;;;;;57.63;49.35;;;23.20;56.40;;;;;;5031105;27;92789;-51
2022/07/04 09:03:23;;;;;;;57.97;49.42;;;23.20;56.40;;;;;;5019731;27;90987;-52
2022/07/04 09:05:49;;;;;;;58.13;49.42;;;23.20;56.40;;;;;;5034272;27;91151;-53
2022/07/04 09:08:16;;;;;;;58.33;49.47;;;23.20;56.30;;;;;;5017323;27;90015;-51
2022/07/04 09:10:42;;;;;;;58.45;49.65;;;23.30;56.30;;;;;;5029884;27;89894;-50
2022/07/04 09:13:10;;;;;;;58.45;49.47;;;23.30;56.30;;;;;;5015652;27;91741;-52
2022/07/04 09:15:36;;;;;;;57.83;49.55;;;23.30;56.20;;;;;;5032187;27;89873;-54
2022/07/04 09:18:02;;;;;;;57.70;49.53;;;23.30;56.30;;;;;;5020526;27;92560;-53
2022/07/04 09:20:31;;;;;;;57.75;49.35;;;23.30;56.20;;;;;;5029223;27;90385;-53
2022/07/04 09:22:56;;;;;;;58.58;49.25;;;23.30;56.10;;;;;;5028844;27;90720;-51
2022/07/04 09:25:24;;;;;;;58.88;49.35;;;23.30;56.00;;;;;;5015105;27;91188;-52
2022/07/04 09:27:55;;;;;;;57.90;49.38;;;23.30;56.10;;;;;;5019706;27;89973;-52
2022/07/04 09:30:25;;;;;;;58.25;49.35;;;23.30;56.00;;;;;;5030806;27;89189;-53
2022/07/04 09:32:54;;;;;;;57.67;49.30;;;23.30;56.00;;;;;;5026901;27;90484;-51
2022/07/04 09:35:24;;;;;;;57.70;49.33;;;23.40;56.60;;;;;;5030513;27;89933;-53
2022/07/04 09:37:52;;;;;;;58.15;49.50;;;23.30;56.00;;;;;;5022333;27;90852;-50
2022/07/04 09:40:26;;;;;;;57.20;49.13;;;23.40;56.10;;;;;;5030221;27;90804;-49
2022/07/04 09:42:53;;;;;;;58.50;49.25;;;23.40;56.00;;;;;;5024497;27;89685;-51
2022/07/04 09:45:21;;;;;;;58.17;49.70;;;23.40;55.90;;;;;;5030945;27;90910;-46
2022/07/04 09:47:47;;;;;;;58.35;49.55;;;23.40;55.90;;;;;;5025951;27;90056;-50
2022/07/04 09:50:16;;;;;;;57.60;49.25;;;23.50;55.80;;;;;;5030106;27;90386;-50
2022/07/04 09:52:59;;;;;;;58.25;49.45;;;23.50;55.80;;;;;;5006816;27;95187;-48
2022/07/04 09:55:33;;;;;;;57.78;49.38;;;23.50;55.90;;;;;;5026124;27;90010;-51
2022/07/04 09:58:01;;;;;;;57.92;49.35;;;23.50;55.80;;;;;;5010817;27;93619;-50
2022/07/04 10:00:28;;;;;;;58.17;49.65;;;23.50;55.80;;;;;;5021042;27;91790;-50
2022/07/04 10:02:55;;;;;;;58.15;49.53;;;23.50;55.60;;;;;;5021984;27;94042;-48
2022/07/04 10:05:26;;;;;;;58.10;49.58;;;23.50;55.80;;;;;;5013619;27;90935;-54
2022/07/04 10:07:57;;;;;;;58.70;49.55;;;23.50;55.70;;;;;;5026477;27;90896;-47
2022/07/04 10:10:39;;;;;;;58.63;49.63;;;23.60;55.70;;;;;;5018195;27;90013;-48
2022/07/04 10:13:06;;;;;;;58.92;49.85;;;23.60;56.20;;;;;;5021770;27;90213;-49
2022/07/04 10:15:33;;;;;;;57.97;49.35;;;23.60;55.60;;;;;;5030960;27;90482;-50
2022/07/04 10:18:00;;;;;;;58.55;49.40;;;23.60;55.60;;;;;;5033067;27;89880;-53
2022/07/04 10:20:25;;;;;;;58.50;49.58;;;23.60;55.60;;;;;;5020880;27;89300;-51
2022/07/04 10:22:51;;;;;;;58.03;49.35;;;23.60;55.50;;;;;;5031221;27;91008;-52
2022/07/04 10:25:17;;;;;;;58.25;49.47;;;23.70;55.50;;;;;;5023910;27;89509;-53
2022/07/04 10:27:44;;;;;;;58.00;49.40;;;23.70;55.50;;;;;;5029908;27;91024;-53
2022/07/04 10:30:14;;;;;;;58.08;49.53;;;23.70;55.50;;;;;;5024503;27;89940;-54
2022/07/04 10:32:42;;;;;;;58.22;49.58;;;23.70;55.50;;;;;;5026046;27;90151;-49
2022/07/04 10:35:09;;;;;;;58.75;49.65;;;23.70;55.60;;;;;;5026696;27;90037;-50
2022/07/04 10:38:07;;;;;;;58.28;49.55;;;23.70;55.60;;;;;;5032915;27;90098;-52
2022/07/04 10:40:52;;;;;;;58.60;49.80;;;23.70;55.60;;;;;;5023616;27;89892;-49
2022/07/04 10:46:13;;;;;;;58.55;49.67;;;23.70;55.60;;;;;;5028722;27;89676;-49
2022/07/04 10:48:51;;;;;;;58.80;49.78;;;23.70;55.50;;;;;;5028828;27;90056;-51
2022/07/04 10:51:45;;;;;;;57.88;49.45;;;23.80;55.60;;;;;;5035900;27;89961;-54
2022/07/04 10:54:15;;;;;;;58.13;49.60;;;23.80;55.60;;;;;;5026049;27;91141;-51
2022/07/04 10:56:51;;;;;;;58.37;49.70;;;23.80;55.60;;;;;;5023487;27;91462;-50
2022/07/04 10:59:19;;;;;;;58.70;49.65;;;23.80;55.70;;;;;;5021342;27;89527;-51
2022/07/04 11:01:46;;;;;;;58.20;49.63;;;23.80;55.80;;;;;;5030869;27;89876;-47
2022/07/04 11:04:12;;;;;;;58.42;49.63;;;23.80;55.80;;;;;;5027339;27;90195;-52
2022/07/04 11:06:38;;;;;;;59.13;50.00;;;23.80;55.80;;;;;;5033281;27;90661;-50
2022/07/04 11:09:16;;;;;;;58.30;49.63;;;23.80;55.80;;;;;;5027820;27;90097;-49
2022/07/04 11:12:00;;;;;;;58.65;49.65;;;23.80;55.80;;;;;;5034313;27;89228;-51
2022/07/04 11:14:39;;;;;;;58.42;49.75;;;23.80;55.80;;;;;;5023202;27;90172;-49
2022/07/04 11:17:10;;;;;;;59.28;49.85;;;23.80;55.90;;;;;;5025736;27;90056;-53
2022/07/04 11:19:36;;;;;;;58.13;49.47;;;23.80;55.90;;;;;;5019088;27;92338;-53
2022/07/04 11:22:04;;;;;;;58.75;49.63;;;23.90;56.00;;;;;;5030579;27;89551;-48
2022/07/04 11:24:31;;;;;;;58.78;49.70;;;23.90;55.90;;;;;;5024309;27;91931;-51
2022/07/04 11:26:57;;;;;;;58.72;49.83;;;23.90;56.00;;;;;;5027478;27;93653;-49
2022/07/04 11:29:24;;;;;;;59.33;49.85;;;23.90;55.90;;;;;;5023900;27;89903;-49
2022/07/04 11:31:51;;;;;;;58.95;49.75;;;23.90;55.90;;;;;;5032313;27;92160;-51
2022/07/04 11:34:18;;;;;;;58.47;49.72;;;23.90;55.90;;;;;;5016185;27;93485;-49
2022/07/04 11:36:46;;;;;;;59.35;50.15;;;23.90;55.90;;;;;;5027042;27;89742;-48
2022/07/04 11:39:19;;;;;;;58.83;49.88;;;24.00;56.00;;;;;;5033062;27;90593;-51
2022/07/04 11:47:43;;;;;;;59.00;50.05;;;24.00;56.00;;;;;;4962017;28;91227;-50
2022/07/04 11:50:14;;;;;;;60.80;50.35;;;24.00;56.00;;;;;;5018052;27;93608;-47
2022/07/04 11:52:44;;;;;;;59.63;50.13;;;24.00;56.00;;;;;;5008134;27;89857;-52
2022/07/04 11:55:13;;;;;;;58.95;49.75;;;24.00;56.00;;;;;;5012612;27;91259;-54
2022/07/04 11:57:54;;;;;;;59.25;49.95;;;24.00;55.90;;;;;;5028049;27;91139;-54
2022/07/04 12:00:24;;;;;;;;;;;24.00;55.90;;;;;;5018816;27;90028;-52
2022/07/04 12:02:50;;;;;;;58.22;49.55;;;24.10;56.00;;;;;;5031807;27;88861;-51
2022/07/04 12:05:17;;;;;;;59.00;49.90;;;24.00;56.00;;;;;;5025052;27;90517;-47
2022/07/04 12:07:45;;;;;;;59.72;49.95;;;24.00;56.00;;;;;;5028370;27;89674;-51
2022/07/04 12:10:15;;;;;;;59.17;50.15;;;24.00;56.00;;;;;;5021938;27;90481;-47
2022/07/04 12:12:53;;;;;;;59.50;50.17;;;24.10;56.10;;;;;;5031925;27;90086;-49
2022/07/04 12:15:21;;;;;;;59.03;50.03;;;24.10;56.00;;;;;;5027560;27;90680;-48
2022/07/04 12:17:54;;;;;;;59.28;50.13;;;24.10;56.10;;;;;;5024278;27;89844;-48
2022/07/04 12:20:21;;;;;;;59.38;50.05;;;24.10;56.10;;;;;;5020034;27;94715;-51
2022/07/04 12:22:56;;;;;;;59.33;50.05;;;24.10;56.20;;;;;;5027077;27;96608;-52
2022/07/04 12:25:40;;;;;;;60.67;50.25;;;24.10;56.20;;;;;;5027441;27;90198;-52
2022/07/04 12:28:08;;;;;;;59.33;50.08;;;24.10;56.10;;;;;;5024462;27;89881;-48
2022/07/04 12:30:39;;;;;;;59.40;50.00;;;24.10;56.10;;;;;;5026069;27;90012;-51
2022/07/04 12:33:09;;;;;;;59.63;50.15;;;24.10;56.10;;;;;;5022624;27;89349;-51
2022/07/04 12:35:47;;;;;;;59.75;50.35;;;24.10;56.10;;;;;;5026279;27;94723;-48
2022/07/04 12:38:28;;;;;;;59.25;50.15;;;24.10;56.20;;;;;;5029962;27;90463;-51
2022/07/04 12:41:02;;;;;;;59.00;49.90;;;24.10;56.10;;;;;;5032758;27;89932;-49
2022/07/04 12:43:42;;;;;;;59.25;50.10;;;24.10;56.10;;;;;;5031243;27;89940;-49
2022/07/04 12:46:09;;;;;;;58.93;50.03;;;24.10;56.10;;;;;;5023201;27;90818;-51
2022/07/04 12:48:35;;;;;;;59.05;50.03;;;24.10;56.20;;;;;;5029634;27;90173;-49
2022/07/04 12:51:16;;;;;;;59.45;50.30;;;24.20;56.20;;;;;;5022141;27;90952;-49